Time;durP1;ratioP1;P1;durP2;ratioP2;P2;SDS_P1;SDS_P2;PMS_P1;PMS_P2;Temp;Humidity;BMP_temperature;BMP_pressure;BME280_temperature;BME280_humidity;BME280_pressure;Samples;Min_cycle;Max_cycle;Signal;HPM_P1;HPM_P2
2023/09/22 00:00:59;;;;;;;10.93;2.85;;;;;;;20.40;82.58;97217.41;4396610;32;20103;-81
2023/09/22 00:03:29;;;;;;;10.82;2.53;;;;;;;20.54;81.18;97221.38;4409838;32;20094;-81
2023/09/22 00:05:57;;;;;;;8.68;2.53;;;;;;;20.25;82.12;97215.44;4410213;32;20117;-81
2023/09/22 00:08:24;;;;;;;12.48;2.75;;;;;;;19.67;85.98;97215.66;4396152;32;20101;-81
2023/09/22 00:10:51;;;;;;;8.25;2.50;;;;;;;20.04;84.12;97208.62;4410227;32;20149;-81
2023/09/22 00:13:18;;;;;;;6.90;2.37;;;;;;;20.31;82.04;97206.97;4410018;32;20108;-81
2023/09/22 00:15:45;;;;;;;9.88;2.75;;;;;;;20.26;82.90;97207.44;4409737;32;20162;-81
2023/09/22 00:18:12;;;;;;;9.00;2.90;;;;;;;20.16;83.44;97204.03;4410192;32;20105;-81
2023/09/22 00:20:39;;;;;;;7.65;2.12;;;;;;;20.07;83.64;97205.72;4410069;32;20173;-81
2023/09/22 00:23:06;;;;;;;8.05;2.50;;;;;;;20.28;83.17;97204.66;4409506;32;20078;-81
2023/09/22 00:25:33;;;;;;;10.25;2.92;;;;;;;20.19;83.48;97206.34;4409981;32;20098;-81
2023/09/22 00:28:00;;;;;;;9.27;2.50;;;;;;;20.19;83.35;97207.19;4410240;32;20129;-81
2023/09/22 00:30:28;;;;;;;10.50;2.80;;;;;;;19.80;85.17;97216.19;4409763;32;20461;-81
2023/09/22 00:32:55;;;;;;;8.75;2.60;;;;;;;19.89;84.76;97207.47;4409984;32;20148;-81
2023/09/22 00:35:22;;;;;;;8.82;2.67;;;;;;;19.83;85.12;97205.41;4410114;32;20160;-81
2023/09/22 00:37:50;;;;;;;7.87;2.55;;;;;;;20.10;83.61;97207.25;4409704;32;20164;-81
2023/09/22 00:40:17;;;;;;;10.25;2.47;;;;;;;20.34;81.90;97201.47;4409895;32;20184;-81
2023/09/22 00:42:45;;;;;;;9.60;2.80;;;;;;;20.37;81.54;97207.22;4409815;32;20161;-81
2023/09/22 00:45:14;;;;;;;9.98;2.47;;;;;;;20.25;82.64;97205.78;4409478;32;20463;-81
2023/09/22 00:47:41;;;;;;;9.98;2.30;;;;;;;20.45;81.44;97211.78;4409752;32;20154;-81
2023/09/22 00:50:11;;;;;;;9.35;2.55;;;;;;;20.48;80.84;97208.84;4395705;32;20116;-81
2023/09/22 00:52:39;;;;;;;7.62;2.80;;;;;;;20.11;83.01;97201.88;4409574;32;20082;-81
2023/09/22 00:55:06;;;;;;;9.23;3.05;;;;;;;20.19;83.06;97194.06;4409575;32;20153;-81
2023/09/22 00:57:33;;;;;;;8.18;2.50;;;;;;;20.29;82.49;97190.59;4395832;32;20582;-81
2023/09/22 01:00:00;;;;;;;6.97;2.67;;;;;;;20.32;81.92;97200.78;4409794;32;20092;-81
2023/09/22 01:02:29;;;;;;;7.30;2.12;;;;;;;19.94;84.03;97198.22;4409668;32;20465;-81
2023/09/22 01:04:56;;;;;;;10.90;2.97;;;;;;;20.21;82.59;97201.81;4409265;32;20106;-81
2023/09/22 01:07:23;;;;;;;8.40;2.28;;;;;;;20.27;82.13;97203.84;4409779;32;20457;-81
2023/09/22 01:09:50;;;;;;;12.20;2.90;;;;;;;20.27;82.30;97195.97;4409774;32;20090;-81
2023/09/22 01:12:17;;;;;;;10.55;4.12;;;;;;;20.11;83.14;97198.41;4409200;32;20083;-81
2023/09/22 01:14:44;;;;;;;10.57;2.87;;;;;;;19.93;84.19;97201.78;4409405;32;20168;-81
2023/09/22 01:17:13;;;;;;;8.77;2.78;;;;;;;19.86;85.44;97197.28;4409715;32;20159;-81
2023/09/22 01:19:42;;;;;;;8.20;2.97;;;;;;;20.13;84.11;97199.09;4409199;32;20081;-81
2023/09/22 01:22:10;;;;;;;8.30;2.67;;;;;;;20.11;84.30;97199.25;4409170;32;20101;-81
2023/09/22 01:24:37;;;;;;;10.65;2.85;;;;;;;19.86;86.36;97205.13;4409356;32;20113;-81
2023/09/22 01:27:04;;;;;;;12.35;3.60;;;;;;;20.20;84.04;97213.25;4409207;32;20557;-81
2023/09/22 01:29:31;;;;;;;10.45;3.08;;;;;;;19.97;84.85;97197.09;4395812;32;20184;-81
2023/09/22 01:31:58;;;;;;;10.63;3.25;;;;;;;19.93;85.65;97206.22;4395680;32;20108;-81
2023/09/22 01:34:25;;;;;;;10.18;3.97;;;;;;;19.55;88.88;97212.34;4408805;32;20445;-81
2023/09/22 01:36:52;;;;;;;11.23;3.25;;;;;;;19.49;89.90;97203.28;4409360;32;20493;-81
2023/09/22 01:39:19;;;;;;;12.45;3.10;;;;;;;19.32;91.03;97202.22;4395693;32;20104;-81
2023/09/22 01:41:46;;;;;;;10.38;2.83;;;;;;;19.28;92.36;97197.41;4408998;32;20083;-81
2023/09/22 01:44:13;;;;;;;10.90;3.22;;;;;;;19.12;93.85;97195.34;4409094;32;20165;-81
2023/09/22 01:46:40;;;;;;;12.63;3.30;;;;;;;19.35;92.87;97195.87;4409006;32;20153;-81
2023/09/22 01:49:07;;;;;;;10.73;3.37;;;;;;;19.07;94.48;97181.87;4409133;32;20082;-81
2023/09/22 01:51:34;;;;;;;13.07;3.22;;;;;;;19.16;94.29;97193.31;4409092;32;20153;-81
2023/09/22 01:54:01;;;;;;;12.65;4.35;;;;;;;19.26;93.87;97188.91;4395014;32;20107;-80
2023/09/22 01:56:28;;;;;;;10.52;3.33;;;;;;;19.27;93.91;97180.91;4409106;32;20094;-81
2023/09/22 01:58:55;;;;;;;9.88;3.30;;;;;;;19.22;94.36;97179.66;4408919;32;20145;-81
2023/09/22 02:01:23;;;;;;;12.70;3.78;;;;;;;19.24;94.09;97183.78;4410447;32;20146;-81
2023/09/22 02:03:51;;;;;;;14.40;3.12;;;;;;;19.26;94.38;97181.87;4410924;32;20113;-81
2023/09/22 02:06:19;;;;;;;11.68;3.10;;;;;;;19.35;93.46;97178.41;4411018;32;20169;-81
2023/09/22 02:08:46;;;;;;;10.27;3.25;;;;;;;19.30;93.26;97172.75;4410605;32;20152;-81
2023/09/22 02:11:13;;;;;;;11.35;3.37;;;;;;;19.37;93.44;97175.66;4397180;32;20101;-81
2023/09/22 02:13:40;;;;;;;10.18;3.35;;;;;;;19.27;94.34;97174.84;4410851;32;20531;-81
2023/09/22 02:16:07;;;;;;;10.80;3.25;;;;;;;19.29;94.47;97171.13;4397054;32;20116;-81
2023/09/22 02:18:35;;;;;;;13.62;3.58;;;;;;;19.25;94.70;97176.78;4410918;32;20085;-81
2023/09/22 02:21:05;;;;;;;14.38;3.17;;;;;;;19.42;93.92;97170.81;4410882;32;20138;-81
2023/09/22 02:23:33;;;;;;;8.27;3.03;;;;;;;19.37;93.47;97173.84;4410433;32;20457;-81
2023/09/22 02:26:07;;;;;;;9.45;3.35;;;;;;;19.48;92.69;97157.19;4410773;32;20161;-81
2023/09/22 02:28:34;;;;;;;8.70;2.97;;;;;;;19.38;93.15;97161.59;4411013;32;20105;-81
2023/09/22 02:31:01;;;;;;;9.80;3.15;;;;;;;19.75;90.67;97163.44;4410394;32;20113;-81
2023/09/22 02:33:31;;;;;;;9.27;3.25;;;;;;;19.37;92.99;97154.72;4397092;32;20098;-81
2023/09/22 02:36:04;;;;;;;10.90;3.30;;;;;;;19.54;91.78;97153.16;4410407;32;20574;-81
2023/09/22 02:38:31;;;;;;;11.65;3.17;;;;;;;19.49;92.95;97161.44;4410932;32;20172;-81
2023/09/22 02:40:58;;;;;;;11.90;3.40;;;;;;;19.56;92.38;97151.22;4410691;32;20144;-81
2023/09/22 02:43:25;;;;;;;10.60;3.28;;;;;;;19.56;92.03;97148.63;4410418;32;20098;-81
2023/09/22 02:45:52;;;;;;;11.27;3.67;;;;;;;19.22;94.08;97143.87;4410578;32;20111;-81
2023/09/22 02:48:20;;;;;;;11.38;3.05;;;;;;;19.47;92.42;97152.09;4397121;32;20385;-81
2023/09/22 02:50:47;;;;;;;11.27;3.00;;;;;;;19.47;92.03;97152.91;4410259;32;20450;-81
2023/09/22 02:53:14;;;;;;;10.15;2.90;;;;;;;19.59;90.88;97154.41;4410617;32;20426;-81
2023/09/22 02:55:41;;;;;;;9.80;3.22;;;;;;;19.56;90.85;97146.00;4410470;32;20098;-81
2023/09/22 02:58:08;;;;;;;9.73;3.00;;;;;;;19.54;90.18;97142.69;4396700;32;20090;-81
2023/09/22 03:00:36;;;;;;;10.15;3.30;;;;;;;19.53;90.29;97139.25;4410663;32;20108;-81
2023/09/22 03:03:03;;;;;;;9.27;2.78;;;;;;;19.58;90.15;97138.84;4410520;32;20149;-81
2023/09/22 03:05:30;;;;;;;12.00;3.17;;;;;;;19.67;89.67;97142.37;4396394;32;20493;-81
2023/09/22 03:07:58;;;;;;;10.23;3.10;;;;;;;19.55;89.67;97134.72;4410687;32;20089;-81
2023/09/22 03:10:25;;;;;;;12.52;2.85;;;;;;;19.61;88.92;97128.91;4410634;32;20109;-81
2023/09/22 03:12:53;;;;;;;11.02;3.10;;;;;;;19.67;88.21;97127.50;4395977;32;20426;-81
2023/09/22 03:15:20;;;;;;;10.40;3.30;;;;;;;19.72;87.43;97134.94;4410297;32;20137;-81
2023/09/22 03:17:47;;;;;;;10.43;3.25;;;;;;;19.78;87.04;97129.97;4410350;32;20104;-81
2023/09/22 03:20:16;;;;;;;11.00;3.30;;;;;;;19.90;86.36;97126.19;4410458;32;20086;-81
2023/09/22 03:22:44;;;;;;;9.27;3.05;;;;;;;19.91;85.87;97127.81;4410136;32;20110;-81
2023/09/22 03:25:11;;;;;;;11.85;2.97;;;;;;;19.82;86.47;97131.31;4409975;32;20089;-81
2023/09/22 03:27:38;;;;;;;11.55;2.75;;;;;;;19.93;85.53;97133.72;4396906;32;20086;-81
2023/09/22 03:30:07;;;;;;;10.15;2.87;;;;;;;20.08;84.72;97136.66;4410552;32;20094;-81
2023/09/22 03:32:35;;;;;;;10.40;2.95;;;;;;;20.01;85.13;97127.78;4410090;32;20158;-81
2023/09/22 03:35:06;;;;;;;10.55;3.05;;;;;;;19.89;86.12;97129.75;4410168;32;20400;-81
2023/09/22 03:37:34;;;;;;;9.15;3.30;;;;;;;19.93;85.57;97125.88;4410494;32;20104;-81
2023/09/22 03:40:13;;;;;;;9.57;3.30;;;;;;;20.03;85.20;97130.25;4410090;32;20108;-81
2023/09/22 03:42:44;;;;;;;11.65;3.60;;;;;;;20.18;84.34;97124.34;4410332;32;20142;-81
2023/09/22 03:45:12;;;;;;;10.35;3.62;;;;;;;20.32;83.26;97135.31;4410169;32;20117;-81
2023/09/22 03:47:40;;;;;;;9.93;3.58;;;;;;;20.22;83.58;97122.28;4410076;32;20372;-81
2023/09/22 03:50:08;;;;;;;13.20;3.75;;;;;;;20.19;84.22;97143.50;4410356;32;20373;-81
2023/09/22 03:52:36;;;;;;;10.38;3.35;;;;;;;20.15;84.36;97136.91;4410222;32;20496;-81
2023/09/22 03:55:04;;;;;;;10.30;3.10;;;;;;;20.28;83.76;97131.31;4396216;32;20127;-81
2023/09/22 03:57:31;;;;;;;9.27;3.17;;;;;;;20.17;83.99;97132.34;4410371;32;20098;-81
2023/09/22 03:59:58;;;;;;;10.30;3.17;;;;;;;19.91;85.63;97124.38;4410065;32;20125;-81
2023/09/22 04:02:27;;;;;;;13.20;3.37;;;;;;;20.03;85.00;97133.69;4410205;32;20137;-81
2023/09/22 04:04:55;;;;;;;9.75;2.75;;;;;;;20.00;85.61;97131.38;4410119;32;20122;-81
2023/09/22 04:07:22;;;;;;;14.23;3.17;;;;;;;19.91;86.21;97121.75;4410047;32;20492;-81
2023/09/22 04:09:49;;;;;;;11.05;3.05;;;;;;;19.96;85.91;97130.00;4410213;32;20145;-81
2023/09/22 04:12:16;;;;;;;11.07;3.17;;;;;;;20.02;85.48;97128.59;4410151;32;20509;-81
2023/09/22 04:14:43;;;;;;;11.82;3.35;;;;;;;19.97;86.20;97136.03;4396056;32;20102;-81
2023/09/22 04:17:10;;;;;;;9.63;2.87;;;;;;;19.83;87.45;97132.94;4410286;32;20096;-81
2023/09/22 04:19:37;;;;;;;9.52;2.92;;;;;;;19.96;86.95;97137.03;4396532;32;20077;-81
2023/09/22 04:22:07;;;;;;;9.88;2.87;;;;;;;19.90;87.31;97139.25;4393251;32;20158;-81
2023/09/22 04:24:34;;;;;;;7.72;3.00;;;;;;;20.03;86.78;97151.19;4393860;32;20090;-81
2023/09/22 04:27:06;;;;;;;11.55;3.12;;;;;;;20.13;86.21;97150.16;4395034;32;20143;-81
2023/09/22 04:29:36;;;;;;;11.63;3.30;;;;;;;20.15;86.49;97155.25;4394573;32;20105;-82
2023/09/22 04:32:07;;;;;;;9.80;3.00;;;;;;;20.07;87.14;97149.91;4394839;32;20110;-81
2023/09/22 04:34:35;;;;;;;12.07;3.20;;;;;;;20.18;86.91;97160.19;4394851;32;20481;-80
2023/09/22 04:37:05;;;;;;;10.18;2.90;;;;;;;20.27;86.19;97166.34;4394548;32;20090;-81
2023/09/22 04:39:33;;;;;;;12.65;3.22;;;;;;;20.10;87.16;97163.56;4394943;32;20101;-79
2023/09/22 04:42:00;;;;;;;9.90;3.00;;;;;;;20.42;85.35;97162.25;4394414;32;20779;-80
2023/09/22 04:44:28;;;;;;;14.45;3.42;;;;;;;20.35;85.75;97169.06;4394997;32;20124;-75
2023/09/22 04:46:55;;;;;;;10.32;3.03;;;;;;;20.20;86.54;97161.72;4394715;32;20220;-75
2023/09/22 04:49:22;;;;;;;11.35;3.30;;;;;;;20.20;86.68;97156.47;4393149;32;20424;-81
2023/09/22 04:51:51;;;;;;;8.52;3.00;;;;;;;20.09;88.12;97167.13;4394619;32;20095;-80
2023/09/22 04:54:22;;;;;;;10.80;3.28;;;;;;;20.11;88.01;97172.25;4394597;32;20109;-80
2023/09/22 04:56:51;;;;;;;10.30;2.80;;;;;;;20.11;88.17;97173.06;4394315;32;20113;-80
2023/09/22 04:59:21;;;;;;;10.73;3.22;;;;;;;19.99;88.95;97169.00;4394652;32;20142;-80
2023/09/22 05:01:48;;;;;;;10.25;2.83;;;;;;;20.05;88.64;97175.44;4394515;32;20161;-80
2023/09/22 05:04:15;;;;;;;6.80;2.90;;;;;;;19.79;90.19;97170.88;4394269;32;20156;-80
2023/09/22 05:06:45;;;;;;;15.75;3.75;;;;;;;20.16;88.64;97180.47;4394634;32;20145;-80
2023/09/22 05:09:11;;;;;;;8.25;2.72;;;;;;;20.17;88.19;97182.09;4393510;32;20075;-80
2023/09/22 05:11:39;;;;;;;9.63;2.80;;;;;;;20.17;88.12;97184.72;4394140;32;20146;-80
2023/09/22 05:14:06;;;;;;;12.90;3.10;;;;;;;20.32;87.09;97183.28;4394521;32;20162;-80
2023/09/22 05:16:33;;;;;;;8.52;2.70;;;;;;;20.69;84.21;97182.34;4394425;32;20105;-80
2023/09/22 05:19:00;;;;;;;13.30;3.75;;;;;;;20.75;83.90;97187.84;4394082;32;20086;-80
2023/09/22 05:21:28;;;;;;;9.98;2.95;;;;;;;20.52;85.03;97191.84;4394318;32;20174;-80
2023/09/22 05:23:56;;;;;;;7.75;2.78;;;;;;;20.73;84.06;97188.94;4408335;32;20448;-79
2023/09/22 05:26:23;;;;;;;8.82;2.92;;;;;;;20.62;84.55;97199.66;4409166;32;20085;-80
2023/09/22 05:28:50;;;;;;;7.05;2.55;;;;;;;20.81;83.51;97191.66;4409449;32;20158;-80
2023/09/22 05:31:19;;;;;;;9.48;3.00;;;;;;;20.56;84.37;97201.06;4408977;32;20129;-80
2023/09/22 05:33:46;;;;;;;16.05;3.20;;;;;;;20.41;85.51;97203.31;4409403;32;20145;-80
2023/09/22 05:36:13;;;;;;;9.55;2.70;;;;;;;20.59;85.06;97206.00;4410783;32;20157;-80
2023/09/22 05:38:40;;;;;;;13.32;3.10;;;;;;;20.54;84.93;97205.66;4410935;32;20124;-80
2023/09/22 05:41:09;;;;;;;11.12;2.90;;;;;;;20.66;83.91;97201.84;4411079;32;20094;-80
2023/09/22 05:43:36;;;;;;;10.95;2.87;;;;;;;20.76;83.41;97209.63;4411139;32;20098;-80
2023/09/22 05:46:03;;;;;;;11.65;3.35;;;;;;;20.77;83.50;97214.72;4410580;32;20093;-80
2023/09/22 05:48:31;;;;;;;13.05;3.50;;;;;;;20.84;83.06;97201.00;4411034;32;20082;-79
2023/09/22 05:50:59;;;;;;;10.93;3.20;;;;;;;20.84;83.11;97201.00;4397036;32;20102;-79
2023/09/22 05:53:27;;;;;;;13.57;3.00;;;;;;;20.89;82.50;97206.63;4396892;32;20169;-79
2023/09/22 05:56:07;;;;;;;10.07;3.12;;;;;;;20.80;83.29;97206.56;4397069;32;20370;-79
2023/09/22 05:58:34;;;;;;;9.88;2.78;;;;;;;20.65;84.45;97202.81;4397266;32;20109;-79
2023/09/22 06:01:09;;;;;;;11.90;2.92;;;;;;;20.60;84.62;97194.56;4410364;32;20154;-80
2023/09/22 06:03:38;;;;;;;10.25;3.30;;;;;;;20.91;82.71;97197.63;4410706;32;20575;-80
2023/09/22 06:06:10;;;;;;;11.75;2.83;;;;;;;21.20;81.25;97194.75;4410683;32;20103;-83
2023/09/22 06:08:39;;;;;;;11.57;2.90;;;;;;;21.55;78.64;97200.94;4384804;32;20086;-78
2023/09/22 06:11:07;;;;;;;12.10;3.17;;;;;;;21.46;79.19;97205.31;4396717;32;20424;-81
2023/09/22 06:13:34;;;;;;;11.02;2.92;;;;;;;22.26;74.97;97216.44;4396867;32;20102;-81
2023/09/22 06:16:01;;;;;;;10.35;2.67;;;;;;;22.77;71.80;97207.53;4410535;32;20097;-79
2023/09/22 06:18:28;;;;;;;11.00;2.62;;;;;;;23.08;70.00;97218.28;4410849;32;20074;-80
2023/09/22 06:20:57;;;;;;;7.22;2.53;;;;;;;23.37;69.06;97225.66;4410340;32;20460;-80
2023/09/22 06:23:25;;;;;;;13.50;2.90;;;;;;;23.66;67.30;97216.44;4396643;32;20169;-80
2023/09/22 06:25:56;;;;;;;14.02;2.58;;;;;;;23.92;66.01;97227.56;4396956;32;20086;-83
2023/09/22 06:28:24;;;;;;;8.80;2.55;;;;;;;24.04;64.98;97219.34;4410368;32;20701;-82
2023/09/22 06:30:52;;;;;;;10.20;2.80;;;;;;;24.07;65.24;97218.97;4410600;32;20507;-83
2023/09/22 06:33:19;;;;;;;10.55;2.60;;;;;;;23.38;67.70;97219.41;4397080;32;20161;-83
2023/09/22 06:35:46;;;;;;;8.35;2.60;;;;;;;23.40;67.91;97211.37;4410167;32;20612;-84
2023/09/22 06:38:14;;;;;;;10.93;3.00;;;;;;;23.51;67.21;97218.94;4410696;32;20104;-83
2023/09/22 06:40:42;;;;;;;9.20;2.72;;;;;;;23.71;66.81;97216.75;4410575;32;20108;-83
2023/09/22 06:43:09;;;;;;;11.80;3.20;;;;;;;24.25;64.83;97216.94;4410403;32;20141;-84
2023/09/22 06:45:52;;;;;;;10.80;2.67;;;;;;;24.22;63.94;97225.16;4410028;32;20106;-79
2023/09/22 06:48:22;;;;;;;10.80;2.62;;;;;;;24.39;63.77;97233.87;4410074;32;20189;-78
2023/09/22 06:50:51;;;;;;;11.93;3.30;;;;;;;24.27;63.74;97220.22;4410453;32;20170;-78
2023/09/22 06:53:21;;;;;;;10.70;3.08;;;;;;;24.35;64.16;97222.00;4410462;32;20093;-78
2023/09/22 06:55:49;;;;;;;12.57;3.08;;;;;;;24.43;63.38;97216.72;4409875;32;20116;-78
2023/09/22 06:58:16;;;;;;;14.23;3.03;;;;;;;24.49;63.69;97221.31;4408515;32;20146;-78
2023/09/22 07:00:46;;;;;;;11.12;3.10;;;;;;;24.61;63.57;97221.72;4410503;32;20126;-78
2023/09/22 07:03:14;;;;;;;13.50;3.08;;;;;;;24.83;62.80;97228.03;4410047;32;20081;-84
2023/09/22 07:05:43;;;;;;;11.05;2.92;;;;;;;24.75;62.02;97229.72;4410124;32;20155;-84
2023/09/22 07:08:10;;;;;;;11.63;3.60;;;;;;;24.65;62.54;97226.47;4410416;32;20099;-84
2023/09/22 07:10:37;;;;;;;9.15;3.08;;;;;;;24.49;63.26;97232.66;4410065;32;20162;-84
2023/09/22 07:13:04;;;;;;;10.50;2.78;;;;;;;24.46;63.28;97240.13;4410322;32;20109;-85
2023/09/22 07:15:32;;;;;;;15.38;3.67;;;;;;;24.53;63.35;97246.31;4410037;32;20090;-85
2023/09/22 07:18:00;;;;;;;12.37;3.45;;;;;;;24.44;63.08;97257.91;4409902;32;20094;-84
2023/09/22 07:20:28;;;;;;;14.87;3.33;;;;;;;24.46;63.48;97261.22;4410183;32;20091;-87
2023/09/22 07:22:56;;;;;;;11.18;3.35;;;;;;;24.24;63.81;97265.34;4409836;32;20165;-86
2023/09/22 07:25:26;;;;;;;16.70;3.45;;;;;;;24.08;64.59;97262.78;4409974;32;20154;-86
2023/09/22 07:27:53;;;;;;;9.88;3.12;;;;;;;24.45;63.27;97255.09;4410253;32;20074;-85
2023/09/22 07:30:20;;;;;;;10.63;3.65;;;;;;;24.24;63.63;97260.94;4410299;32;20101;-85
2023/09/22 07:32:47;;;;;;;12.07;2.95;;;;;;;24.22;63.61;97265.53;4396289;32;20382;-85
2023/09/22 07:35:15;;;;;;;15.05;3.72;;;;;;;24.07;63.82;97280.41;4410141;32;20105;-84
2023/09/22 07:37:42;;;;;;;13.93;3.37;;;;;;;23.98;64.17;97286.69;4409941;32;20342;-85
2023/09/22 07:40:09;;;;;;;11.10;3.10;;;;;;;24.08;64.34;97299.69;4410292;32;20090;-85
2023/09/22 07:42:39;;;;;;;10.70;3.30;;;;;;;24.04;64.44;97301.03;4410216;32;20114;-85
2023/09/22 07:45:07;;;;;;;9.80;3.10;;;;;;;23.97;64.40;97302.66;4409735;32;20101;-85
2023/09/22 07:47:34;;;;;;;10.63;3.20;;;;;;;23.92;64.32;97293.44;4396475;32;20463;-84
2023/09/22 07:50:02;;;;;;;11.35;3.10;;;;;;;23.89;64.78;97301.69;4396675;32;20471;-84
2023/09/22 07:52:29;;;;;;;10.52;3.00;;;;;;;23.78;65.11;97304.66;4409664;32;20124;-84
2023/09/22 07:54:57;;;;;;;10.13;2.97;;;;;;;23.67;64.51;97310.28;4409947;32;20440;-84
2023/09/22 07:57:25;;;;;;;10.60;3.40;;;;;;;23.73;64.92;97299.09;4396447;32;20149;-83
2023/09/22 07:59:54;;;;;;;9.63;3.60;;;;;;;23.88;64.33;97304.50;4409739;32;20094;-83
2023/09/22 08:02:21;;;;;;;11.00;3.72;;;;;;;23.78;64.23;97314.38;4410076;32;20104;-83
2023/09/22 08:04:48;;;;;;;11.93;2.90;;;;;;;23.79;64.44;97308.13;4409995;32;20124;-83
2023/09/22 08:07:15;;;;;;;12.30;2.97;;;;;;;23.67;64.90;97312.91;4409730;32;20150;-84
2023/09/22 08:09:42;;;;;;;13.15;3.08;;;;;;;23.41;65.75;97304.31;4410130;32;20093;-83
2023/09/22 08:12:09;;;;;;;10.80;3.25;;;;;;;23.62;65.46;97310.78;4410004;32;20147;-83
2023/09/22 08:14:36;;;;;;;16.87;3.62;;;;;;;23.62;65.41;97315.22;4409620;32;20094;-84
2023/09/22 08:17:22;;;;;;;12.98;4.15;;;;;;;23.83;65.22;97305.00;4410087;32;20141;-84
2023/09/22 08:19:50;;;;;;;11.20;3.03;;;;;;;24.67;63.00;97310.69;4409620;32;20166;-84
2023/09/22 08:22:17;;;;;;;11.70;3.87;;;;;;;24.65;61.33;97296.88;4409639;32;20530;-84
2023/09/22 08:24:44;;;;;;;14.25;3.40;;;;;;;24.77;61.12;97308.69;4409880;32;20094;-85
2023/09/22 08:27:11;;;;;;;9.27;2.83;;;;;;;24.90;61.67;97308.13;4409754;32;20105;-86
2023/09/22 08:29:39;;;;;;;14.05;3.17;;;;;;;25.60;58.58;97321.22;4409837;32;20154;-86
2023/09/22 08:32:07;;;;;;;10.90;3.20;;;;;;;26.05;57.67;97314.22;4409900;32;20428;-86
2023/09/22 08:34:40;;;;;;;12.45;2.80;;;;;;;26.50;55.27;97306.16;4409508;32;20146;-84
2023/09/22 08:37:07;;;;;;;11.15;3.10;;;;;;;26.08;56.09;97320.00;4384011;32;20086;-85
2023/09/22 08:39:34;;;;;;;10.27;2.95;;;;;;;25.67;58.11;97325.63;4409842;32;20468;-86
2023/09/22 08:42:02;;;;;;;16.58;3.50;;;;;;;25.95;57.25;97335.66;4409502;32;20090;-86
2023/09/22 08:44:30;;;;;;;12.90;3.45;;;;;;;25.91;57.17;97331.72;4409607;32;20116;-86
2023/09/22 08:46:57;;;;;;;11.12;2.85;;;;;;;26.51;55.42;97325.50;4409938;32;20120;-86
2023/09/22 08:49:26;;;;;;;9.60;3.37;;;;;;;26.97;54.16;97326.06;4409385;32;20094;-85
2023/09/22 08:51:53;;;;;;;11.98;3.40;;;;;;;26.73;54.19;97324.56;4396178;32;20098;-85
2023/09/22 08:54:21;;;;;;;14.32;3.20;;;;;;;26.14;55.38;97327.19;4409631;32;20475;-85
2023/09/22 08:56:48;;;;;;;11.20;3.17;;;;;;;25.85;56.85;97320.03;4409324;32;20082;-86
2023/09/22 08:59:15;;;;;;;10.32;3.05;;;;;;;26.43;55.96;97322.94;4409745;32;20108;-86
2023/09/22 09:01:42;;;;;;;16.27;3.20;;;;;;;27.18;53.74;97309.44;4409210;32;20097;-86
2023/09/22 09:04:33;;;;;;;12.07;3.20;;;;;;;27.56;52.61;97315.31;4409667;32;20100;-86
2023/09/22 09:07:04;;;;;;;11.65;3.45;;;;;;;28.17;50.95;97315.59;4409572;32;20105;-86
2023/09/22 09:09:43;;;;;;;11.02;3.22;;;;;;;27.95;50.69;97311.34;4408474;32;20475;-86
2023/09/22 09:12:11;;;;;;;12.35;3.25;;;;;;;28.38;49.98;97319.22;4409054;32;20106;-87
2023/09/22 09:14:39;;;;;;;13.70;3.22;;;;;;;28.52;48.86;97312.97;4409301;32;20155;-87
2023/09/22 09:17:20;;;;;;;15.90;3.90;;;;;;;28.36;49.14;97319.41;4408953;32;20145;-85
2023/09/22 09:19:54;;;;;;;16.17;3.97;;;;;;;27.53;51.59;97323.63;4409423;32;20098;-85
2023/09/22 09:22:22;;;;;;;10.63;3.47;;;;;;;26.62;53.74;97317.09;4409193;32;20108;-86
2023/09/22 09:24:49;;;;;;;11.43;3.22;;;;;;;26.61;54.64;97307.53;4382816;32;20134;-87
2023/09/22 09:27:17;;;;;;;16.33;4.05;;;;;;;27.03;54.10;97312.13;4409327;32;20473;-87
2023/09/22 09:29:46;;;;;;;10.57;3.62;;;;;;;27.64;51.59;97307.19;4408967;32;20156;-84
2023/09/22 09:32:26;;;;;;;10.80;3.45;;;;;;;28.15;51.15;97311.50;4409036;32;20093;-88
2023/09/22 09:34:54;;;;;;;10.05;3.15;;;;;;;28.81;49.12;97309.19;4409245;32;20826;-87
2023/09/22 09:37:21;;;;;;;14.93;3.10;;;;;;;28.70;49.18;97299.97;4408885;32;20101;-87
2023/09/22 09:39:52;;;;;;;12.00;3.30;;;;;;;28.96;48.29;97299.28;4409173;32;20098;-86
2023/09/22 09:42:23;;;;;;;18.90;3.67;;;;;;;28.71;48.54;97308.75;4409021;32;20097;-85
2023/09/22 09:44:52;;;;;;;14.95;3.53;;;;;;;28.39;49.31;97296.97;4408951;32;20429;-86
2023/09/22 09:47:32;;;;;;;11.93;3.10;;;;;;;28.16;49.84;97302.53;4395675;32;20121;-87
2023/09/22 09:50:04;;;;;;;9.25;3.10;;;;;;;28.71;47.77;97290.16;4408856;32;20098;-88
2023/09/22 09:52:48;;;;;;;12.13;3.25;;;;;;;28.86;47.57;97296.16;4408660;32;20471;-88
2023/09/22 09:55:15;;;;;;;16.12;3.15;;;;;;;29.07;46.74;97297.91;4395456;32;20094;-88
2023/09/22 09:57:44;;;;;;;16.80;3.37;;;;;;;28.92;46.17;97300.69;4408833;32;20144;-87
2023/09/22 10:00:13;;;;;;;17.00;3.33;;;;;;;28.68;46.48;97291.41;4408954;32;20448;-87
2023/09/22 10:02:43;;;;;;;10.20;2.85;;;;;;;29.01;45.48;97296.84;4395355;32;20124;-87
2023/09/22 10:05:16;;;;;;;10.10;3.40;;;;;;;29.33;45.16;97287.31;4395231;32;20589;-87
2023/09/22 10:07:48;;;;;;;14.87;3.37;;;;;;;29.02;46.05;97300.31;4408911;32;20091;-87
2023/09/22 10:10:20;;;;;;;12.27;3.22;;;;;;;29.34;45.58;97302.22;4408830;32;20440;-87
2023/09/22 10:12:47;;;;;;;11.60;2.90;;;;;;;29.08;44.68;97291.56;4394768;32;20165;-88
2023/09/22 10:15:15;;;;;;;9.93;3.12;;;;;;;28.91;45.53;97277.81;4408541;32;20108;-87
2023/09/22 10:17:42;;;;;;;13.23;3.10;;;;;;;28.90;44.88;97297.44;4408659;32;20070;-87
2023/09/22 10:20:14;;;;;;;13.48;3.50;;;;;;;28.35;46.54;97291.25;4394475;32;20094;-87
2023/09/22 10:22:41;;;;;;;16.12;3.33;;;;;;;28.83;45.72;97299.22;4410387;32;20466;-86
2023/09/22 10:25:11;;;;;;;11.50;3.08;;;;;;;29.46;44.58;97301.66;4410547;32;20471;-86
2023/09/22 10:27:55;;;;;;;13.20;3.40;;;;;;;29.43;45.18;97302.03;4410379;32;20078;-86
2023/09/22 10:30:43;;;;;;;12.45;3.17;;;;;;;29.49;44.65;97294.13;4410656;32;20094;-86
2023/09/22 10:33:42;;;;;;;17.37;3.83;;;;;;;29.64;42.92;97293.91;4410178;32;20127;-86
2023/09/22 10:36:10;;;;;;;13.32;3.47;;;;;;;29.47;43.89;97296.13;4395951;32;20485;-86
2023/09/22 10:38:55;;;;;;;10.60;3.10;;;;;;;29.72;43.17;97301.69;4410782;32;20586;-86
2023/09/22 10:41:22;;;;;;;12.82;3.15;;;;;;;29.49;43.83;97304.75;4410065;32;20116;-86
2023/09/22 10:43:59;;;;;;;15.73;3.30;;;;;;;29.37;43.36;97309.81;4410586;32;20109;-85
2023/09/22 10:46:26;;;;;;;11.30;3.17;;;;;;;29.47;43.49;97309.41;4410610;32;20082;-85
2023/09/22 10:48:53;;;;;;;13.13;3.30;;;;;;;29.21;43.41;97314.69;4410250;32;20091;-85
2023/09/22 10:51:22;;;;;;;12.40;2.97;;;;;;;29.13;43.34;97318.31;4410500;32;20555;-85
2023/09/22 10:53:59;;;;;;;12.85;3.55;;;;;;;28.80;44.19;97321.66;4410324;32;20109;-85
2023/09/22 10:56:26;;;;;;;11.12;3.45;;;;;;;28.88;43.63;97320.72;4410392;32;20546;-85
2023/09/22 10:58:53;;;;;;;15.10;3.50;;;;;;;28.86;44.05;97308.63;4410281;32;20086;-84
2023/09/22 11:01:22;;;;;;;9.68;2.92;;;;;;;28.41;44.56;97313.53;4410029;32;20152;-84
2023/09/22 11:03:53;;;;;;;16.25;3.22;;;;;;;28.29;45.25;97302.66;4410201;32;20477;-83
2023/09/22 11:06:21;;;;;;;10.38;3.00;;;;;;;28.50;45.46;97307.06;4397273;32;20172;-84
2023/09/22 11:08:53;;;;;;;12.05;3.47;;;;;;;28.39;46.11;97308.44;4410103;32;20101;-84
2023/09/22 11:11:21;;;;;;;12.27;3.53;;;;;;;28.66;44.76;97297.94;4410360;32;20149;-84
2023/09/22 11:13:54;;;;;;;14.50;3.60;;;;;;;28.68;45.95;97302.00;4410291;32;20142;-84
2023/09/22 11:16:22;;;;;;;14.00;3.53;;;;;;;28.55;45.71;97312.56;4410083;32;20136;-83
2023/09/22 11:18:49;;;;;;;11.38;3.30;;;;;;;28.34;46.66;97317.97;4410321;32;20136;-84
2023/09/22 11:21:17;;;;;;;11.30;3.10;;;;;;;28.34;46.19;97316.13;4410290;32;20098;-84
2023/09/22 11:23:44;;;;;;;11.25;2.95;;;;;;;28.51;46.06;97309.50;4409696;32;20169;-83
2023/09/22 11:26:13;;;;;;;14.20;3.22;;;;;;;28.48;45.90;97320.50;4410406;32;20451;-84
2023/09/22 11:28:44;;;;;;;15.98;4.55;;;;;;;28.24;46.01;97299.72;4410176;32;20102;-84
2023/09/22 11:31:14;;;;;;;16.62;3.80;;;;;;;28.53;46.18;97304.00;4409806;32;20457;-84
2023/09/22 11:33:43;;;;;;;12.93;3.50;;;;;;;28.79;45.06;97304.09;4409687;32;20110;-82